createdAt,value
2022-11-17T00:03:53.276Z,52.9
2022-11-17T00:08:53.169Z,52.9
2022-11-17T00:13:52.988Z,52.9
2022-11-17T00:18:52.765Z,52.9
2022-11-17T00:23:55.300Z,53
2022-11-17T00:28:54.688Z,52.9
2022-11-17T00:33:55.044Z,53
2022-11-17T00:38:54.875Z,52.9
2022-11-17T00:43:54.678Z,53.1
2022-11-17T00:48:57.391Z,52.8
2022-11-17T00:53:56.628Z,53.4
2022-11-17T00:58:56.573Z,53.2
2022-11-17T01:04:00.999Z,53.2
2022-11-17T01:08:59.986Z,53.2
2022-11-17T01:13:59.895Z,53
2022-11-17T01:18:59.931Z,53
2022-11-17T01:24:02.881Z,53.3
2022-11-17T01:29:02.229Z,53.2
2022-11-17T01:34:02.385Z,53
2022-11-17T01:39:02.414Z,53.3
2022-11-17T01:44:02.669Z,53
2022-11-17T01:49:02.100Z,53.3
2022-11-17T01:54:01.876Z,53.3
2022-11-17T01:59:01.845Z,53.3
2022-11-17T02:04:01.720Z,53.1
2022-11-17T02:09:01.757Z,53.2
2022-11-17T02:14:01.898Z,53.3
2022-11-17T02:19:01.696Z,53.4
2022-11-17T02:24:01.879Z,53.4
2022-11-17T02:29:01.696Z,53.2
2022-11-17T02:34:01.818Z,53.2
2022-11-17T02:39:02.061Z,53.1
2022-11-17T02:44:04.960Z,53.2
2022-11-17T02:49:03.944Z,53.1
2022-11-17T02:54:06.957Z,53.2
2022-11-17T02:59:06.527Z,53.2
2022-11-17T03:04:06.421Z,53.2
2022-11-17T03:09:06.387Z,53.2
2022-11-17T03:14:06.153Z,53.3
2022-11-17T03:19:06.259Z,53.4
2022-11-17T03:24:06.477Z,53.4
2022-11-17T03:29:06.096Z,53.1
2022-11-17T03:34:06.111Z,53.3
2022-11-17T03:39:06.030Z,53.2
2022-11-17T03:44:09.061Z,53.2
2022-11-17T03:49:11.239Z,53.2
2022-11-17T03:54:13.173Z,53.2
2022-11-17T03:59:15.333Z,53.2
2022-11-17T04:04:14.778Z,53.4
2022-11-17T04:09:17.626Z,53.2
2022-11-17T04:14:14.817Z,53.2
2022-11-17T04:19:14.816Z,53.4
2022-11-17T04:24:14.814Z,53.2
2022-11-17T04:29:14.658Z,53.2
2022-11-17T04:34:14.835Z,53.3
2022-11-17T04:39:15.010Z,53.1
2022-11-17T04:44:16.860Z,53.2
2022-11-17T04:49:16.252Z,53.4
2022-11-17T04:54:16.219Z,53.2
2022-11-17T04:59:15.073Z,53.1
2022-11-17T05:04:15.406Z,53.4
2022-11-17T05:09:15.404Z,53.2
2022-11-17T05:14:15.364Z,53.2
2022-11-17T05:19:15.441Z,53.1
2022-11-17T05:24:15.375Z,53.2
2022-11-17T05:29:15.433Z,52.9
2022-11-17T05:34:15.301Z,52.5
2022-11-17T05:39:18.116Z,52.5
2022-11-17T05:44:20.221Z,52.3
2022-11-17T05:49:19.461Z,52.1
2022-11-17T05:54:19.486Z,52.3
2022-11-17T05:59:23.379Z,52.1
2022-11-17T06:04:19.306Z,51.9
2022-11-17T06:09:19.242Z,51.8
2022-11-17T06:14:19.510Z,51.7
2022-11-17T06:19:22.154Z,51.8
2022-11-17T06:24:21.242Z,51.6
2022-11-17T06:29:21.340Z,51.7
2022-11-17T06:34:21.566Z,52
2022-11-17T06:39:21.378Z,51.9
2022-11-17T06:44:21.420Z,52.2
2022-11-17T06:49:23.744Z,51.2
2022-11-17T06:54:23.318Z,52.1
2022-11-17T06:59:23.018Z,51.7
2022-11-17T07:04:23.226Z,51.7
2022-11-17T07:09:23.263Z,51.5
2022-11-17T07:14:26.204Z,51.4
2022-11-17T07:19:25.839Z,51.3
2022-11-17T07:24:25.551Z,51.3
2022-11-17T07:29:25.640Z,51.3
2022-11-17T07:34:27.867Z,51.2
2022-11-17T07:39:27.476Z,51.3
2022-11-17T07:44:27.860Z,51.4
2022-11-17T07:49:27.764Z,49.8
2022-11-17T07:54:30.563Z,50.9
2022-11-17T07:59:33.094Z,51.2
2022-11-17T08:04:35.263Z,51.5
2022-11-17T08:09:34.815Z,51.5
2022-11-17T08:14:34.528Z,51.7
2022-11-17T08:19:37.432Z,51.6
2022-11-17T08:24:39.296Z,51.6
2022-11-17T08:29:41.359Z,51.8
2022-11-17T08:34:41.035Z,51.7
2022-11-17T08:39:40.908Z,51.7
2022-11-17T08:44:40.921Z,51.8
2022-11-17T08:49:41.015Z,51.7
2022-11-17T08:54:41.279Z,51.7
2022-11-17T08:59:41.142Z,51.6
2022-11-17T09:04:40.990Z,51.7
2022-11-17T09:09:41.119Z,51.8
2022-11-17T09:14:41.089Z,51.8
2022-11-17T09:19:43.817Z,51.7
2022-11-17T09:24:43.425Z,51.8
2022-11-17T09:29:43.289Z,51.3
2022-11-17T09:34:43.350Z,50.5
2022-11-17T09:39:43.211Z,50.7
2022-11-17T09:44:43.356Z,51
2022-11-17T09:49:43.518Z,50.8
2022-11-17T09:54:43.769Z,50.9
2022-11-17T09:59:43.685Z,50.8
2022-11-17T10:04:43.849Z,50.7
2022-11-17T10:09:46.735Z,50.7
2022-11-17T10:14:48.964Z,50.7
2022-11-17T10:19:48.540Z,50.7
2022-11-17T10:24:50.613Z,50.6
2022-11-17T10:29:50.263Z,50.4
2022-11-17T10:34:53.135Z,51.1
2022-11-17T10:39:52.784Z,51.3
2022-11-17T10:44:55.417Z,51.2
2022-11-17T10:49:54.978Z,51.2
2022-11-17T10:54:54.950Z,51.2
2022-11-17T10:59:57.434Z,51.3
2022-11-17T11:04:55.448Z,51.2
2022-11-17T11:09:55.261Z,51.2
2022-11-17T11:14:54.895Z,50.7
2022-11-17T11:19:54.922Z,50.6
2022-11-17T11:24:54.732Z,50.2
2022-11-17T11:29:54.716Z,50.4
2022-11-17T11:34:54.890Z,50.3
2022-11-17T11:39:54.975Z,50.5
2022-11-17T11:44:55.230Z,50.5
2022-11-17T11:49:55.245Z,50.5
2022-11-17T11:54:57.960Z,50.4
2022-11-17T12:00:02.539Z,50.4
2022-11-17T12:04:57.598Z,50.3
2022-11-17T12:09:57.503Z,50.3
2022-11-17T12:14:57.479Z,50.4
2022-11-17T12:19:57.579Z,51.2
2022-11-17T12:25:01.809Z,51.3
2022-11-17T12:30:01.081Z,51.2
2022-11-17T12:35:03.575Z,51.3
2022-11-17T12:40:03.096Z,51
2022-11-17T12:45:03.268Z,51.2
2022-11-17T12:50:06.167Z,51.1
2022-11-17T12:55:05.545Z,51.2
2022-11-17T13:00:05.765Z,51.1
2022-11-17T13:05:05.817Z,51.2
2022-11-17T13:10:05.944Z,51.1
2022-11-17T13:15:07.857Z,51.2
2022-11-17T13:20:07.381Z,51.4
2022-11-17T13:25:07.520Z,51.4
2022-11-17T13:30:07.556Z,51.7
2022-11-17T13:35:10.245Z,51.5
2022-11-17T13:40:11.523Z,51.5
2022-11-17T13:45:14.187Z,52
2022-11-17T13:50:13.545Z,52.3
2022-11-17T13:55:13.648Z,52.4
2022-11-17T14:00:13.587Z,52.7
2022-11-17T14:05:16.300Z,54
2022-11-17T14:10:15.673Z,53.9
2022-11-17T14:15:15.553Z,54.7
2022-11-17T14:20:18.448Z,54.8
2022-11-17T14:25:17.867Z,54.9
2022-11-17T14:30:17.920Z,55
2022-11-17T14:40:20.606Z,55.5
2022-11-17T14:45:20.040Z,55.2
2022-11-17T14:50:22.651Z,55.1
2022-11-17T14:55:22.396Z,54.2
2022-11-17T15:00:22.630Z,54.3
2022-11-17T15:05:22.675Z,54.5
2022-11-17T15:10:22.706Z,54.9
2022-11-17T15:15:25.520Z,55.1
2022-11-17T15:20:27.772Z,54.8
2022-11-17T15:25:27.493Z,55.3
2022-11-17T15:30:27.490Z,54.9
2022-11-17T15:35:30.200Z,54.8
2022-11-17T15:40:32.373Z,55.1
2022-11-17T15:45:34.687Z,55.1
2022-11-17T15:50:34.253Z,55.4
2022-11-17T15:55:34.360Z,55.2
2022-11-17T16:00:34.616Z,55.3
2022-11-17T16:05:34.877Z,55.6
2022-11-17T16:10:37.772Z,55.2
2022-11-17T16:15:37.377Z,55.6
2022-11-17T16:20:40.117Z,55.4
2022-11-17T16:25:39.568Z,55.2
2022-11-17T16:30:42.229Z,55.4
2022-11-17T16:35:41.693Z,55.6
2022-11-17T16:40:44.423Z,55.4
2022-11-17T16:45:43.931Z,55.6
2022-11-17T16:50:43.960Z,56.2
2022-11-17T16:55:43.655Z,56.1
2022-11-17T17:00:43.652Z,56.2
2022-11-17T17:05:46.505Z,56.6
2022-11-17T17:10:46.288Z,56.7
2022-11-17T17:15:49.117Z,56.6
2022-11-17T17:20:48.624Z,56.9
2022-11-17T17:25:48.491Z,56.9
2022-11-17T17:30:48.500Z,57.1
2022-11-17T17:35:51.346Z,57
2022-11-17T17:40:50.793Z,56.7
2022-11-17T17:45:50.734Z,57.5
2022-11-17T17:50:50.742Z,57.6
2022-11-17T17:55:50.941Z,57.2
2022-11-17T18:00:55.205Z,57.4
2022-11-17T18:05:54.217Z,57.4
2022-11-17T18:10:54.068Z,57.7
2022-11-17T18:15:53.988Z,57.4
2022-11-17T18:20:53.862Z,57.5
2022-11-17T18:25:53.997Z,57.9
2022-11-17T18:30:57.105Z,57.7
2022-11-17T18:35:56.473Z,57.7
2022-11-17T18:40:59.344Z,57.5
2022-11-17T18:45:59.665Z,58
2022-11-17T18:51:21.565Z,57.8
2022-11-17T18:56:01.559Z,57.8
2022-11-17T19:01:02.469Z,58
2022-11-17T19:06:02.432Z,57.9
2022-11-17T19:11:06.002Z,57.7
2022-11-17T19:16:02.533Z,58
2022-11-17T19:21:02.598Z,58.3
2022-11-17T19:26:05.392Z,58.1
2022-11-17T19:31:04.675Z,58
2022-11-17T19:36:07.417Z,58.1
2022-11-17T19:41:09.643Z,58
2022-11-17T19:46:09.042Z,57.9
2022-11-17T19:51:09.047Z,58.3
2022-11-17T19:56:11.471Z,58
2022-11-17T20:01:11.128Z,58.2
2022-11-17T20:06:11.188Z,57.9
2022-11-17T20:11:11.201Z,58.1
2022-11-17T20:16:12.359Z,58.2
2022-11-17T20:21:11.395Z,58.3
2022-11-17T20:26:14.329Z,58.3
2022-11-17T20:31:13.906Z,58.2
2022-11-17T20:36:14.006Z,58.1
2022-11-17T20:41:14.105Z,57.9
2022-11-17T20:46:16.783Z,58.1
2022-11-17T20:51:16.237Z,58.2
2022-11-17T20:56:16.447Z,58.6
2022-11-17T21:01:16.790Z,58.3
2022-11-17T21:06:16.385Z,58.4
2022-11-17T21:11:16.606Z,58.4
2022-11-17T21:16:16.496Z,58.1
2022-11-17T21:21:16.646Z,58.6
2022-11-17T21:26:16.577Z,58.4
2022-11-17T21:31:19.595Z,58.6
2022-11-17T21:36:18.795Z,58.4
2022-11-17T21:41:18.949Z,58.4
2022-11-17T21:46:19.106Z,58.1
2022-11-17T21:51:19.275Z,58.7
2022-11-17T21:56:18.343Z,58.3
2022-11-17T22:01:18.587Z,58.6
2022-11-17T22:06:18.830Z,58.7
2022-11-17T22:11:18.950Z,58.4
2022-11-17T22:16:19.129Z,58.7
2022-11-17T22:21:19.185Z,58.6
2022-11-17T22:26:19.162Z,58.5
2022-11-17T22:31:19.375Z,58.5
2022-11-17T22:36:19.132Z,58.7
2022-11-17T22:41:19.077Z,58.5
2022-11-17T22:46:19.353Z,58.6
2022-11-17T22:51:19.431Z,58.5
2022-11-17T22:56:22.314Z,58.4
2022-11-17T23:01:24.676Z,58.5
2022-11-17T23:06:24.266Z,58.5
2022-11-17T23:11:42.327Z,58.4
2022-11-17T23:16:26.404Z,58.5
2022-11-17T23:21:29.148Z,58.6
2022-11-17T23:26:28.879Z,58.5
2022-11-17T23:31:29.069Z,58.4
2022-11-17T23:36:29.260Z,58.6
2022-11-17T23:41:32.063Z,58.6
2022-11-17T23:46:31.625Z,58.7
2022-11-17T23:51:31.496Z,58.5
2022-11-17T23:56:31.463Z,58.4
